sensor_id;sensor_type;location;lat;lon;timestamp;P1;durP1;ratioP1;P2;durP2;ratioP2
9388;SDS011;4734;52.778;6.798;2022-08-30T00:00:59;2.90;;;2.70;;
9388;SDS011;4734;52.778;6.798;2022-08-30T00:03:47;3.15;;;2.80;;
9388;SDS011;4734;52.778;6.798;2022-08-30T00:06:33;3.33;;;3.00;;
9388;SDS011;4734;52.778;6.798;2022-08-30T00:09:19;5.13;;;3.00;;
9388;SDS011;4734;52.778;6.798;2022-08-30T00:12:04;4.30;;;3.20;;
9388;SDS011;4734;52.778;6.798;2022-08-30T00:14:50;4.60;;;3.30;;
9388;SDS011;4734;52.778;6.798;2022-08-30T00:17:37;4.78;;;3.33;;
9388;SDS011;4734;52.778;6.798;2022-08-30T00:20:25;3.65;;;3.35;;
9388;SDS011;4734;52.778;6.798;2022-08-30T00:23:10;3.47;;;3.17;;
9388;SDS011;4734;52.778;6.798;2022-08-30T00:25:56;3.38;;;3.10;;
9388;SDS011;4734;52.778;6.798;2022-08-30T00:28:42;3.60;;;3.30;;
9388;SDS011;4734;52.778;6.798;2022-08-30T00:31:27;3.35;;;2.92;;
9388;SDS011;4734;52.778;6.798;2022-08-30T00:34:15;4.43;;;3.20;;
9388;SDS011;4734;52.778;6.798;2022-08-30T00:37:01;4.93;;;3.38;;
9388;SDS011;4734;52.778;6.798;2022-08-30T00:39:47;3.30;;;3.10;;
9388;SDS011;4734;52.778;6.798;2022-08-30T00:42:34;3.97;;;3.35;;
9388;SDS011;4734;52.778;6.798;2022-08-30T00:45:21;3.45;;;3.15;;
9388;SDS011;4734;52.778;6.798;2022-08-30T00:48:07;4.55;;;3.80;;
9388;SDS011;4734;52.778;6.798;2022-08-30T00:50:56;6.18;;;3.30;;
9388;SDS011;4734;52.778;6.798;2022-08-30T00:53:45;6.63;;;3.45;;
9388;SDS011;4734;52.778;6.798;2022-08-30T00:56:32;4.55;;;3.35;;
9388;SDS011;4734;52.778;6.798;2022-08-30T00:59:18;3.55;;;3.25;;
9388;SDS011;4734;52.778;6.798;2022-08-30T01:02:07;4.60;;;3.50;;
9388;SDS011;4734;52.778;6.798;2022-08-30T01:04:53;3.75;;;3.38;;
9388;SDS011;4734;52.778;6.798;2022-08-30T01:07:40;3.72;;;3.42;;
9388;SDS011;4734;52.778;6.798;2022-08-30T01:10:26;3.90;;;3.50;;
9388;SDS011;4734;52.778;6.798;2022-08-30T01:13:12;4.18;;;3.80;;
9388;SDS011;4734;52.778;6.798;2022-08-30T01:15:58;5.45;;;3.60;;
9388;SDS011;4734;52.778;6.798;2022-08-30T01:18:44;3.90;;;3.55;;
9388;SDS011;4734;52.778;6.798;2022-08-30T01:21:31;3.90;;;3.60;;
9388;SDS011;4734;52.778;6.798;2022-08-30T01:24:19;3.67;;;3.38;;
9388;SDS011;4734;52.778;6.798;2022-08-30T01:27:05;4.60;;;3.22;;
9388;SDS011;4734;52.778;6.798;2022-08-30T01:29:51;4.70;;;3.30;;
9388;SDS011;4734;52.778;6.798;2022-08-30T01:32:39;3.40;;;3.10;;
9388;SDS011;4734;52.778;6.798;2022-08-30T01:35:26;3.50;;;3.28;;
9388;SDS011;4734;52.778;6.798;2022-08-30T01:38:12;3.78;;;2.97;;
9388;SDS011;4734;52.778;6.798;2022-08-30T01:41:06;3.72;;;3.42;;
9388;SDS011;4734;52.778;6.798;2022-08-30T01:43:53;4.78;;;3.90;;
9388;SDS011;4734;52.778;6.798;2022-08-30T01:46:40;2.92;;;2.65;;
9388;SDS011;4734;52.778;6.798;2022-08-30T01:49:28;2.55;;;2.35;;
9388;SDS011;4734;52.778;6.798;2022-08-30T01:52:14;3.67;;;3.38;;
9388;SDS011;4734;52.778;6.798;2022-08-30T01:55:00;4.70;;;3.80;;
9388;SDS011;4734;52.778;6.798;2022-08-30T01:57:47;5.65;;;3.88;;
9388;SDS011;4734;52.778;6.798;2022-08-30T02:00:33;3.65;;;3.35;;
9388;SDS011;4734;52.778;6.798;2022-08-30T02:03:19;5.45;;;3.60;;
9388;SDS011;4734;52.778;6.798;2022-08-30T02:06:06;4.32;;;3.40;;
9388;SDS011;4734;52.778;6.798;2022-08-30T02:08:52;5.20;;;3.17;;
9388;SDS011;4734;52.778;6.798;2022-08-30T02:11:38;3.00;;;2.80;;
9388;SDS011;4734;52.778;6.798;2022-08-30T02:14:25;4.22;;;3.83;;
9388;SDS011;4734;52.778;6.798;2022-08-30T02:17:12;5.35;;;3.60;;
9388;SDS011;4734;52.778;6.798;2022-08-30T02:19:57;3.13;;;2.83;;
9388;SDS011;4734;52.778;6.798;2022-08-30T02:22:43;3.92;;;3.50;;
9388;SDS011;4734;52.778;6.798;2022-08-30T02:25:30;4.90;;;3.95;;
9388;SDS011;4734;52.778;6.798;2022-08-30T02:28:16;4.55;;;4.15;;
9388;SDS011;4734;52.778;6.798;2022-08-30T02:31:04;4.00;;;3.60;;
9388;SDS011;4734;52.778;6.798;2022-08-30T02:33:50;6.18;;;4.40;;
9388;SDS011;4734;52.778;6.798;2022-08-30T02:36:36;3.97;;;3.67;;
9388;SDS011;4734;52.778;6.798;2022-08-30T02:39:23;3.88;;;3.58;;
9388;SDS011;4734;52.778;6.798;2022-08-30T02:42:08;3.85;;;3.55;;
9388;SDS011;4734;52.778;6.798;2022-08-30T02:44:54;4.53;;;4.07;;
9388;SDS011;4734;52.778;6.798;2022-08-30T02:47:41;3.42;;;2.67;;
9388;SDS011;4734;52.778;6.798;2022-08-30T02:50:27;3.50;;;3.22;;
9388;SDS011;4734;52.778;6.798;2022-08-30T02:53:13;6.78;;;3.58;;
9388;SDS011;4734;52.778;6.798;2022-08-30T02:55:59;4.13;;;3.80;;
9388;SDS011;4734;52.778;6.798;2022-08-30T02:58:45;4.03;;;3.50;;
9388;SDS011;4734;52.778;6.798;2022-08-30T03:01:31;3.58;;;2.97;;
9388;SDS011;4734;52.778;6.798;2022-08-30T03:04:20;4.50;;;4.10;;
9388;SDS011;4734;52.778;6.798;2022-08-30T03:07:07;3.70;;;3.40;;
9388;SDS011;4734;52.778;6.798;2022-08-30T03:09:52;4.32;;;3.75;;
9388;SDS011;4734;52.778;6.798;2022-08-30T03:12:38;3.40;;;3.15;;
9388;SDS011;4734;52.778;6.798;2022-08-30T03:15:25;3.50;;;3.20;;
9388;SDS011;4734;52.778;6.798;2022-08-30T03:18:11;4.05;;;3.75;;
9388;SDS011;4734;52.778;6.798;2022-08-30T03:20:58;3.47;;;3.15;;
9388;SDS011;4734;52.778;6.798;2022-08-30T03:23:44;3.20;;;2.83;;
9388;SDS011;4734;52.778;6.798;2022-08-30T03:26:30;3.65;;;3.28;;
9388;SDS011;4734;52.778;6.798;2022-08-30T03:29:15;3.85;;;3.60;;
9388;SDS011;4734;52.778;6.798;2022-08-30T03:32:01;2.85;;;2.65;;
9388;SDS011;4734;52.778;6.798;2022-08-30T03:34:47;6.45;;;3.90;;
9388;SDS011;4734;52.778;6.798;2022-08-30T03:37:35;4.50;;;3.80;;
9388;SDS011;4734;52.778;6.798;2022-08-30T03:40:20;4.80;;;4.32;;
9388;SDS011;4734;52.778;6.798;2022-08-30T03:43:06;4.78;;;4.32;;
9388;SDS011;4734;52.778;6.798;2022-08-30T03:45:52;4.50;;;4.10;;
9388;SDS011;4734;52.778;6.798;2022-08-30T03:48:38;4.00;;;3.63;;
9388;SDS011;4734;52.778;6.798;2022-08-30T03:51:24;4.55;;;3.60;;
9388;SDS011;4734;52.778;6.798;2022-08-30T03:54:11;4.40;;;4.10;;
9388;SDS011;4734;52.778;6.798;2022-08-30T03:56:57;4.25;;;3.95;;
9388;SDS011;4734;52.778;6.798;2022-08-30T03:59:43;4.38;;;4.07;;
9388;SDS011;4734;52.778;6.798;2022-08-30T04:02:29;4.30;;;3.97;;
9388;SDS011;4734;52.778;6.798;2022-08-30T04:05:14;5.07;;;4.63;;
9388;SDS011;4734;52.778;6.798;2022-08-30T04:08:00;4.80;;;4.30;;
9388;SDS011;4734;52.778;6.798;2022-08-30T04:10:47;5.00;;;4.60;;
9388;SDS011;4734;52.778;6.798;2022-08-30T04:13:34;7.25;;;4.93;;
9388;SDS011;4734;52.778;6.798;2022-08-30T04:16:20;4.97;;;4.57;;
9388;SDS011;4734;52.778;6.798;2022-08-30T04:19:06;5.63;;;5.10;;
9388;SDS011;4734;52.778;6.798;2022-08-30T04:21:51;4.70;;;4.30;;
9388;SDS011;4734;52.778;6.798;2022-08-30T04:24:37;5.22;;;4.72;;
9388;SDS011;4734;52.778;6.798;2022-08-30T04:27:25;5.93;;;4.78;;
9388;SDS011;4734;52.778;6.798;2022-08-30T04:30:12;6.15;;;4.30;;
9388;SDS011;4734;52.778;6.798;2022-08-30T04:32:57;5.68;;;5.00;;
9388;SDS011;4734;52.778;6.798;2022-08-30T04:35:44;5.50;;;5.00;;
9388;SDS011;4734;52.778;6.798;2022-08-30T04:38:31;5.35;;;4.95;;
9388;SDS011;4734;52.778;6.798;2022-08-30T04:41:17;5.43;;;4.95;;
9388;SDS011;4734;52.778;6.798;2022-08-30T04:44:04;5.63;;;4.43;;
9388;SDS011;4734;52.778;6.798;2022-08-30T04:46:50;5.95;;;4.63;;
9388;SDS011;4734;52.778;6.798;2022-08-30T04:49:36;5.43;;;4.95;;
9388;SDS011;4734;52.778;6.798;2022-08-30T04:52:22;5.47;;;5.07;;
9388;SDS011;4734;52.778;6.798;2022-08-30T04:55:09;6.68;;;4.97;;
9388;SDS011;4734;52.778;6.798;2022-08-30T04:57:55;4.95;;;4.47;;
9388;SDS011;4734;52.778;6.798;2022-08-30T05:00:43;4.60;;;4.20;;
9388;SDS011;4734;52.778;6.798;2022-08-30T05:03:28;5.32;;;4.82;;
9388;SDS011;4734;52.778;6.798;2022-08-30T05:06:14;4.38;;;4.07;;
9388;SDS011;4734;52.778;6.798;2022-08-30T05:09:00;5.25;;;4.53;;
9388;SDS011;4734;52.778;6.798;2022-08-30T05:11:46;6.38;;;5.22;;
9388;SDS011;4734;52.778;6.798;2022-08-30T05:14:32;6.55;;;5.30;;
9388;SDS011;4734;52.778;6.798;2022-08-30T05:17:19;5.68;;;5.03;;
9388;SDS011;4734;52.778;6.798;2022-08-30T05:20:05;5.63;;;4.70;;
9388;SDS011;4734;52.778;6.798;2022-08-30T05:22:50;4.82;;;4.43;;
9388;SDS011;4734;52.778;6.798;2022-08-30T05:25:37;5.65;;;5.00;;
9388;SDS011;4734;52.778;6.798;2022-08-30T05:28:23;6.03;;;5.53;;
9388;SDS011;4734;52.778;6.798;2022-08-30T05:31:13;6.43;;;5.03;;
9388;SDS011;4734;52.778;6.798;2022-08-30T05:34:00;5.68;;;5.18;;
9388;SDS011;4734;52.778;6.798;2022-08-30T05:36:46;6.18;;;5.55;;
9388;SDS011;4734;52.778;6.798;2022-08-30T05:39:32;5.68;;;5.28;;
9388;SDS011;4734;52.778;6.798;2022-08-30T05:42:18;6.45;;;5.85;;
9388;SDS011;4734;52.778;6.798;2022-08-30T05:45:04;6.03;;;5.57;;
9388;SDS011;4734;52.778;6.798;2022-08-30T05:47:50;7.90;;;5.78;;
9388;SDS011;4734;52.778;6.798;2022-08-30T05:50:37;6.40;;;5.88;;
9388;SDS011;4734;52.778;6.798;2022-08-30T05:53:23;6.20;;;5.40;;
9388;SDS011;4734;52.778;6.798;2022-08-30T05:56:10;6.30;;;5.68;;
9388;SDS011;4734;52.778;6.798;2022-08-30T05:58:56;5.80;;;5.30;;
9388;SDS011;4734;52.778;6.798;2022-08-30T06:01:43;6.90;;;5.85;;
9388;SDS011;4734;52.778;6.798;2022-08-30T06:04:29;7.15;;;5.57;;
9388;SDS011;4734;52.778;6.798;2022-08-30T06:07:16;5.25;;;4.82;;
9388;SDS011;4734;52.778;6.798;2022-08-30T06:10:02;5.30;;;4.82;;
9388;SDS011;4734;52.778;6.798;2022-08-30T06:12:49;6.43;;;5.38;;
9388;SDS011;4734;52.778;6.798;2022-08-30T06:15:35;5.20;;;4.75;;
9388;SDS011;4734;52.778;6.798;2022-08-30T06:18:21;6.57;;;4.57;;
9388;SDS011;4734;52.778;6.798;2022-08-30T06:21:07;5.35;;;4.85;;
9388;SDS011;4734;52.778;6.798;2022-08-30T06:23:54;5.97;;;4.90;;
9388;SDS011;4734;52.778;6.798;2022-08-30T06:26:41;5.47;;;4.75;;
9388;SDS011;4734;52.778;6.798;2022-08-30T06:29:27;4.32;;;4.00;;
9388;SDS011;4734;52.778;6.798;2022-08-30T06:32:13;6.30;;;4.55;;
9388;SDS011;4734;52.778;6.798;2022-08-30T06:34:58;4.95;;;4.45;;
9388;SDS011;4734;52.778;6.798;2022-08-30T06:37:44;4.28;;;3.88;;
9388;SDS011;4734;52.778;6.798;2022-08-30T06:40:31;4.82;;;4.43;;
9388;SDS011;4734;52.778;6.798;2022-08-30T06:43:17;4.35;;;3.95;;
9388;SDS011;4734;52.778;6.798;2022-08-30T06:46:03;4.50;;;3.80;;
9388;SDS011;4734;52.778;6.798;2022-08-30T06:48:48;4.82;;;4.15;;
9388;SDS011;4734;52.778;6.798;2022-08-30T06:51:35;5.90;;;3.80;;
9388;SDS011;4734;52.778;6.798;2022-08-30T06:54:21;3.70;;;3.40;;
9388;SDS011;4734;52.778;6.798;2022-08-30T06:57:08;6.97;;;3.63;;
9388;SDS011;4734;52.778;6.798;2022-08-30T06:59:55;4.20;;;3.60;;
9388;SDS011;4734;52.778;6.798;2022-08-30T07:02:41;4.78;;;3.53;;
9388;SDS011;4734;52.778;6.798;2022-08-30T07:05:27;3.40;;;3.10;;
9388;SDS011;4734;52.778;6.798;2022-08-30T07:08:13;3.70;;;3.40;;
9388;SDS011;4734;52.778;6.798;2022-08-30T07:10:58;5.20;;;3.60;;
9388;SDS011;4734;52.778;6.798;2022-08-30T07:13:46;4.18;;;3.38;;
9388;SDS011;4734;52.778;6.798;2022-08-30T07:16:32;5.93;;;3.20;;
9388;SDS011;4734;52.778;6.798;2022-08-30T07:19:18;3.10;;;2.70;;
9388;SDS011;4734;52.778;6.798;2022-08-30T07:22:03;3.90;;;2.55;;
9388;SDS011;4734;52.778;6.798;2022-08-30T07:24:49;4.78;;;2.92;;
9388;SDS011;4734;52.778;6.798;2022-08-30T07:27:34;3.25;;;2.10;;
9388;SDS011;4734;52.778;6.798;2022-08-30T07:30:22;2.22;;;2.00;;
9388;SDS011;4734;52.778;6.798;2022-08-30T07:33:08;3.60;;;2.20;;
9388;SDS011;4734;52.778;6.798;2022-08-30T07:35:54;4.50;;;1.75;;
9388;SDS011;4734;52.778;6.798;2022-08-30T07:38:41;3.58;;;2.00;;
9388;SDS011;4734;52.778;6.798;2022-08-30T07:41:28;3.30;;;1.73;;
9388;SDS011;4734;52.778;6.798;2022-08-30T07:44:16;3.10;;;2.20;;
9388;SDS011;4734;52.778;6.798;2022-08-30T07:47:03;2.05;;;1.85;;
9388;SDS011;4734;52.778;6.798;2022-08-30T07:49:49;2.38;;;1.92;;
9388;SDS011;4734;52.778;6.798;2022-08-30T07:52:35;2.92;;;2.00;;
9388;SDS011;4734;52.778;6.798;2022-08-30T07:55:20;2.65;;;2.08;;
9388;SDS011;4734;52.778;6.798;2022-08-30T07:58:09;3.25;;;1.80;;
9388;SDS011;4734;52.778;6.798;2022-08-30T08:00:55;3.40;;;1.80;;
9388;SDS011;4734;52.778;6.798;2022-08-30T08:03:43;3.00;;;2.13;;
9388;SDS011;4734;52.778;6.798;2022-08-30T08:06:29;2.20;;;1.70;;
9388;SDS011;4734;52.778;6.798;2022-08-30T08:09:14;2.67;;;1.60;;
9388;SDS011;4734;52.778;6.798;2022-08-30T08:12:02;1.80;;;1.65;;
9388;SDS011;4734;52.778;6.798;2022-08-30T08:14:48;3.60;;;1.70;;
9388;SDS011;4734;52.778;6.798;2022-08-30T08:17:34;2.72;;;1.65;;
9388;SDS011;4734;52.778;6.798;2022-08-30T08:20:21;2.28;;;1.77;;
9388;SDS011;4734;52.778;6.798;2022-08-30T08:23:07;2.50;;;2.15;;
9388;SDS011;4734;52.778;6.798;2022-08-30T08:25:53;4.93;;;1.70;;
9388;SDS011;4734;52.778;6.798;2022-08-30T08:28:39;1.98;;;1.88;;
9388;SDS011;4734;52.778;6.798;2022-08-30T08:31:25;2.17;;;1.63;;
9388;SDS011;4734;52.778;6.798;2022-08-30T08:34:12;1.73;;;1.60;;
9388;SDS011;4734;52.778;6.798;2022-08-30T08:36:59;2.47;;;1.80;;
9388;SDS011;4734;52.778;6.798;2022-08-30T08:39:44;3.90;;;1.80;;
9388;SDS011;4734;52.778;6.798;2022-08-30T08:42:32;3.75;;;1.38;;
9388;SDS011;4734;52.778;6.798;2022-08-30T08:45:22;1.77;;;1.52;;
9388;SDS011;4734;52.778;6.798;2022-08-30T08:48:09;1.80;;;1.55;;
9388;SDS011;4734;52.778;6.798;2022-08-30T08:50:56;1.50;;;1.40;;
9388;SDS011;4734;52.778;6.798;2022-08-30T08:54:03;1.80;;;1.38;;
9388;SDS011;4734;52.778;6.798;2022-08-30T08:56:52;3.58;;;1.48;;
9388;SDS011;4734;52.778;6.798;2022-08-30T08:59:38;2.10;;;1.60;;
9388;SDS011;4734;52.778;6.798;2022-08-30T09:02:25;2.42;;;1.58;;
9388;SDS011;4734;52.778;6.798;2022-08-30T09:05:12;3.10;;;1.55;;
9388;SDS011;4734;52.778;6.798;2022-08-30T09:08:00;2.58;;;1.42;;
9388;SDS011;4734;52.778;6.798;2022-08-30T09:10:49;2.05;;;1.63;;
9388;SDS011;4734;52.778;6.798;2022-08-30T09:13:39;2.20;;;1.70;;
9388;SDS011;4734;52.778;6.798;2022-08-30T09:16:44;1.58;;;1.48;;
9388;SDS011;4734;52.778;6.798;2022-08-30T09:19:32;3.72;;;1.80;;
9388;SDS011;4734;52.778;6.798;2022-08-30T09:22:22;8.57;;;2.05;;
9388;SDS011;4734;52.778;6.798;2022-08-30T09:25:20;1.55;;;1.40;;
9388;SDS011;4734;52.778;6.798;2022-08-30T09:28:09;1.92;;;1.42;;
9388;SDS011;4734;52.778;6.798;2022-08-30T09:30:57;1.63;;;1.40;;
9388;SDS011;4734;52.778;6.798;2022-08-30T09:33:52;1.85;;;1.33;;
9388;SDS011;4734;52.778;6.798;2022-08-30T09:36:39;2.17;;;1.42;;
9388;SDS011;4734;52.778;6.798;2022-08-30T09:39:27;2.22;;;1.52;;
9388;SDS011;4734;52.778;6.798;2022-08-30T09:42:14;1.33;;;1.23;;
9388;SDS011;4734;52.778;6.798;2022-08-30T09:45:04;1.60;;;1.40;;
9388;SDS011;4734;52.778;6.798;2022-08-30T09:47:55;3.38;;;1.50;;
9388;SDS011;4734;52.778;6.798;2022-08-30T09:50:40;3.65;;;1.88;;
9388;SDS011;4734;52.778;6.798;2022-08-30T09:53:29;2.20;;;1.15;;
9388;SDS011;4734;52.778;6.798;2022-08-30T09:56:17;2.38;;;1.42;;
9388;SDS011;4734;52.778;6.798;2022-08-30T09:59:07;2.75;;;1.50;;
9388;SDS011;4734;52.778;6.798;2022-08-30T10:01:58;2.00;;;1.40;;
9388;SDS011;4734;52.778;6.798;2022-08-30T10:04:46;7.60;;;1.92;;
9388;SDS011;4734;52.778;6.798;2022-08-30T10:07:37;1.42;;;1.25;;
9388;SDS011;4734;52.778;6.798;2022-08-30T10:10:27;1.92;;;1.10;;
9388;SDS011;4734;52.778;6.798;2022-08-30T10:13:29;1.40;;;1.23;;
9388;SDS011;4734;52.778;6.798;2022-08-30T10:16:19;3.17;;;1.27;;
9388;SDS011;4734;52.778;6.798;2022-08-30T10:19:13;2.80;;;1.38;;
9388;SDS011;4734;52.778;6.798;2022-08-30T10:22:03;1.55;;;1.23;;
9388;SDS011;4734;52.778;6.798;2022-08-30T10:25:14;1.77;;;1.27;;
9388;SDS011;4734;52.778;6.798;2022-08-30T10:28:02;1.70;;;1.60;;
9388;SDS011;4734;52.778;6.798;2022-08-30T10:30:51;1.50;;;1.20;;
9388;SDS011;4734;52.778;6.798;2022-08-30T10:33:39;2.40;;;1.48;;
9388;SDS011;4734;52.778;6.798;2022-08-30T10:36:34;1.60;;;1.30;;
9388;SDS011;4734;52.778;6.798;2022-08-30T10:39:23;1.55;;;1.15;;
9388;SDS011;4734;52.778;6.798;2022-08-30T10:42:11;1.80;;;1.20;;
9388;SDS011;4734;52.778;6.798;2022-08-30T10:45:00;2.15;;;1.20;;
9388;SDS011;4734;52.778;6.798;2022-08-30T10:47:48;1.20;;;0.93;;
9388;SDS011;4734;52.778;6.798;2022-08-30T10:50:40;1.70;;;1.40;;
9388;SDS011;4734;52.778;6.798;2022-08-30T10:53:29;1.30;;;1.20;;
9388;SDS011;4734;52.778;6.798;2022-08-30T10:56:16;2.10;;;1.30;;
9388;SDS011;4734;52.778;6.798;2022-08-30T10:59:04;3.05;;;1.33;;
9388;SDS011;4734;52.778;6.798;2022-08-30T11:02:00;2.53;;;1.35;;
9388;SDS011;4734;52.778;6.798;2022-08-30T11:04:55;1.67;;;1.20;;
9388;SDS011;4734;52.778;6.798;2022-08-30T11:07:46;4.18;;;1.45;;
9388;SDS011;4734;52.778;6.798;2022-08-30T11:10:39;2.10;;;1.30;;
9388;SDS011;4734;52.778;6.798;2022-08-30T11:13:29;1.33;;;1.23;;
9388;SDS011;4734;52.778;6.798;2022-08-30T11:16:16;3.53;;;1.30;;
9388;SDS011;4734;52.778;6.798;2022-08-30T11:19:03;1.42;;;1.33;;
9388;SDS011;4734;52.778;6.798;2022-08-30T11:22:07;4.20;;;1.30;;
9388;SDS011;4734;52.778;6.798;2022-08-30T11:24:57;2.13;;;1.35;;
9388;SDS011;4734;52.778;6.798;2022-08-30T11:27:46;4.38;;;1.45;;
9388;SDS011;4734;52.778;6.798;2022-08-30T11:30:48;1.75;;;1.10;;
9388;SDS011;4734;52.778;6.798;2022-08-30T11:33:44;2.13;;;1.30;;
9388;SDS011;4734;52.778;6.798;2022-08-30T11:39:41;1.15;;;1.13;;
9388;SDS011;4734;52.778;6.798;2022-08-30T11:42:38;1.65;;;1.35;;
9388;SDS011;4734;52.778;6.798;2022-08-30T11:45:45;1.20;;;0.90;;
9388;SDS011;4734;52.778;6.798;2022-08-30T11:48:41;1.65;;;1.00;;
9388;SDS011;4734;52.778;6.798;2022-08-30T11:54:32;1.65;;;1.35;;
9388;SDS011;4734;52.778;6.798;2022-08-30T11:57:21;2.28;;;1.15;;
9388;SDS011;4734;52.778;6.798;2022-08-30T12:00:17;1.90;;;1.20;;
9388;SDS011;4734;52.778;6.798;2022-08-30T12:06:10;1.52;;;1.25;;
9388;SDS011;4734;52.778;6.798;2022-08-30T12:08:56;2.72;;;1.20;;
9388;SDS011;4734;52.778;6.798;2022-08-30T12:14:47;1.25;;;1.17;;
9388;SDS011;4734;52.778;6.798;2022-08-30T12:17:47;1.65;;;1.13;;
9388;SDS011;4734;52.778;6.798;2022-08-30T12:20:54;4.10;;;1.10;;
9388;SDS011;4734;52.778;6.798;2022-08-30T12:23:47;3.08;;;1.23;;
9388;SDS011;4734;52.778;6.798;2022-08-30T12:26:34;1.58;;;1.10;;
9388;SDS011;4734;52.778;6.798;2022-08-30T12:39:38;1.17;;;1.00;;
9388;SDS011;4734;52.778;6.798;2022-08-30T12:42:24;1.48;;;1.20;;
9388;SDS011;4734;52.778;6.798;2022-08-30T12:45:11;2.22;;;1.17;;
9388;SDS011;4734;52.778;6.798;2022-08-30T12:47:59;2.42;;;1.10;;
9388;SDS011;4734;52.778;6.798;2022-08-30T12:50:47;1.35;;;1.00;;
9388;SDS011;4734;52.778;6.798;2022-08-30T12:53:35;1.23;;;1.00;;
9388;SDS011;4734;52.778;6.798;2022-08-30T12:56:43;1.40;;;1.30;;
9388;SDS011;4734;52.778;6.798;2022-08-30T12:59:42;1.52;;;1.05;;
9388;SDS011;4734;52.778;6.798;2022-08-30T13:02:40;2.03;;;1.20;;
9388;SDS011;4734;52.778;6.798;2022-08-30T13:05:35;1.77;;;1.30;;
9388;SDS011;4734;52.778;6.798;2022-08-30T13:08:30;1.80;;;1.20;;
9388;SDS011;4734;52.778;6.798;2022-08-30T13:11:24;1.20;;;1.10;;
9388;SDS011;4734;52.778;6.798;2022-08-30T13:14:27;2.13;;;1.10;;
9388;SDS011;4734;52.778;6.798;2022-08-30T13:17:21;2.97;;;1.10;;
9388;SDS011;4734;52.778;6.798;2022-08-30T13:20:18;1.73;;;1.13;;
9388;SDS011;4734;52.778;6.798;2022-08-30T13:23:05;0.90;;;0.90;;
9388;SDS011;4734;52.778;6.798;2022-08-30T13:25:52;2.75;;;1.08;;
9388;SDS011;4734;52.778;6.798;2022-08-30T13:28:42;2.78;;;0.98;;
9388;SDS011;4734;52.778;6.798;2022-08-30T13:31:29;1.60;;;0.90;;
9388;SDS011;4734;52.778;6.798;2022-08-30T13:34:15;1.67;;;1.00;;
9388;SDS011;4734;52.778;6.798;2022-08-30T13:37:05;1.20;;;1.10;;
9388;SDS011;4734;52.778;6.798;2022-08-30T13:39:51;1.10;;;1.00;;
9388;SDS011;4734;52.778;6.798;2022-08-30T13:42:37;1.17;;;0.85;;
9388;SDS011;4734;52.778;6.798;2022-08-30T13:45:26;3.00;;;1.02;;
9388;SDS011;4734;52.778;6.798;2022-08-30T13:48:12;1.92;;;1.10;;
9388;SDS011;4734;52.778;6.798;2022-08-30T13:51:00;1.17;;;1.02;;
9388;SDS011;4734;52.778;6.798;2022-08-30T13:53:46;3.13;;;1.20;;
9388;SDS011;4734;52.778;6.798;2022-08-30T13:56:32;2.05;;;1.00;;
9388;SDS011;4734;52.778;6.798;2022-08-30T13:59:18;1.55;;;1.10;;
9388;SDS011;4734;52.778;6.798;2022-08-30T14:02:05;1.20;;;1.10;;
9388;SDS011;4734;52.778;6.798;2022-08-30T14:04:51;0.90;;;0.90;;
9388;SDS011;4734;52.778;6.798;2022-08-30T14:07:37;1.55;;;1.33;;
9388;SDS011;4734;52.778;6.798;2022-08-30T14:10:23;1.45;;;1.10;;
9388;SDS011;4734;52.778;6.798;2022-08-30T14:13:10;1.55;;;1.45;;
9388;SDS011;4734;52.778;6.798;2022-08-30T14:15:56;1.00;;;1.00;;
9388;SDS011;4734;52.778;6.798;2022-08-30T14:18:49;2.55;;;1.20;;
9388;SDS011;4734;52.778;6.798;2022-08-30T14:21:36;2.75;;;1.30;;
9388;SDS011;4734;52.778;6.798;2022-08-30T14:24:22;1.40;;;1.25;;
9388;SDS011;4734;52.778;6.798;2022-08-30T14:27:08;2.40;;;1.10;;
9388;SDS011;4734;52.778;6.798;2022-08-30T14:29:55;0.88;;;0.82;;
9388;SDS011;4734;52.778;6.798;2022-08-30T14:32:41;1.30;;;1.20;;
9388;SDS011;4734;52.778;6.798;2022-08-30T14:35:28;1.42;;;1.05;;
9388;SDS011;4734;52.778;6.798;2022-08-30T14:38:14;1.33;;;1.10;;
9388;SDS011;4734;52.778;6.798;2022-08-30T14:41:00;1.40;;;1.15;;
9388;SDS011;4734;52.778;6.798;2022-08-30T14:43:49;0.90;;;0.90;;
9388;SDS011;4734;52.778;6.798;2022-08-30T14:46:35;2.17;;;1.00;;
9388;SDS011;4734;52.778;6.798;2022-08-30T14:49:21;1.42;;;1.10;;
9388;SDS011;4734;52.778;6.798;2022-08-30T14:52:08;0.80;;;0.80;;
9388;SDS011;4734;52.778;6.798;2022-08-30T14:54:54;1.00;;;0.90;;
9388;SDS011;4734;52.778;6.798;2022-08-30T14:57:42;4.45;;;1.30;;
9388;SDS011;4734;52.778;6.798;2022-08-30T15:00:28;0.77;;;0.77;;
9388;SDS011;4734;52.778;6.798;2022-08-30T15:03:16;1.15;;;1.08;;
9388;SDS011;4734;52.778;6.798;2022-08-30T15:06:02;1.30;;;1.00;;
9388;SDS011;4734;52.778;6.798;2022-08-30T15:08:49;1.52;;;1.05;;
9388;SDS011;4734;52.778;6.798;2022-08-30T15:11:35;2.45;;;0.90;;
9388;SDS011;4734;52.778;6.798;2022-08-30T15:14:23;1.67;;;1.10;;
9388;SDS011;4734;52.778;6.798;2022-08-30T15:17:09;3.60;;;1.20;;
9388;SDS011;4734;52.778;6.798;2022-08-30T15:19:55;1.70;;;0.90;;
9388;SDS011;4734;52.778;6.798;2022-08-30T15:22:41;0.90;;;0.90;;
9388;SDS011;4734;52.778;6.798;2022-08-30T15:25:28;1.27;;;1.00;;
9388;SDS011;4734;52.778;6.798;2022-08-30T15:28:14;1.75;;;0.80;;
9388;SDS011;4734;52.778;6.798;2022-08-30T15:31:00;0.95;;;0.95;;
9388;SDS011;4734;52.778;6.798;2022-08-30T15:33:48;3.35;;;1.13;;
9388;SDS011;4734;52.778;6.798;2022-08-30T15:36:34;1.75;;;0.90;;
9388;SDS011;4734;52.778;6.798;2022-08-30T15:39:19;1.85;;;1.20;;
9388;SDS011;4734;52.778;6.798;2022-08-30T15:42:07;1.10;;;1.00;;
9388;SDS011;4734;52.778;6.798;2022-08-30T15:44:53;1.08;;;0.70;;
9388;SDS011;4734;52.778;6.798;2022-08-30T15:47:39;3.03;;;1.10;;
9388;SDS011;4734;52.778;6.798;2022-08-30T15:50:25;1.63;;;1.20;;
9388;SDS011;4734;52.778;6.798;2022-08-30T15:53:11;2.35;;;1.13;;
9388;SDS011;4734;52.778;6.798;2022-08-30T15:55:56;1.83;;;1.40;;
9388;SDS011;4734;52.778;6.798;2022-08-30T15:58:44;1.35;;;1.08;;
9388;SDS011;4734;52.778;6.798;2022-08-30T16:01:30;1.13;;;1.00;;
9388;SDS011;4734;52.778;6.798;2022-08-30T16:04:16;2.05;;;0.90;;
9388;SDS011;4734;52.778;6.798;2022-08-30T16:07:02;0.90;;;0.90;;
9388;SDS011;4734;52.778;6.798;2022-08-30T16:09:48;1.23;;;1.00;;
9388;SDS011;4734;52.778;6.798;2022-08-30T16:12:34;1.25;;;1.15;;
9388;SDS011;4734;52.778;6.798;2022-08-30T16:15:21;2.15;;;1.20;;
9388;SDS011;4734;52.778;6.798;2022-08-30T16:18:07;1.00;;;1.00;;
9388;SDS011;4734;52.778;6.798;2022-08-30T16:21:00;2.88;;;0.90;;
9388;SDS011;4734;52.778;6.798;2022-08-30T16:23:46;1.25;;;1.10;;
9388;SDS011;4734;52.778;6.798;2022-08-30T16:26:33;0.95;;;0.95;;
9388;SDS011;4734;52.778;6.798;2022-08-30T16:29:19;1.00;;;1.00;;
9388;SDS011;4734;52.778;6.798;2022-08-30T16:32:06;2.80;;;1.00;;
9388;SDS011;4734;52.778;6.798;2022-08-30T16:34:52;2.05;;;0.90;;
9388;SDS011;4734;52.778;6.798;2022-08-30T16:37:38;2.97;;;1.00;;
9388;SDS011;4734;52.778;6.798;2022-08-30T16:40:24;0.90;;;0.90;;
9388;SDS011;4734;52.778;6.798;2022-08-30T16:43:10;1.00;;;0.90;;
9388;SDS011;4734;52.778;6.798;2022-08-30T16:45:57;1.10;;;1.00;;
9388;SDS011;4734;52.778;6.798;2022-08-30T16:48:45;0.93;;;0.93;;
9388;SDS011;4734;52.778;6.798;2022-08-30T16:51:32;1.02;;;1.00;;
9388;SDS011;4734;52.778;6.798;2022-08-30T16:54:18;2.28;;;1.00;;
9388;SDS011;4734;52.778;6.798;2022-08-30T16:57:04;1.27;;;0.80;;
9388;SDS011;4734;52.778;6.798;2022-08-30T16:59:50;0.77;;;0.77;;
9388;SDS011;4734;52.778;6.798;2022-08-30T17:02:35;1.20;;;1.02;;
9388;SDS011;4734;52.778;6.798;2022-08-30T17:05:23;1.27;;;1.10;;
9388;SDS011;4734;52.778;6.798;2022-08-30T17:08:09;2.05;;;1.13;;
9388;SDS011;4734;52.778;6.798;2022-08-30T17:10:55;1.73;;;1.00;;
9388;SDS011;4734;52.778;6.798;2022-08-30T17:13:41;1.88;;;1.10;;
9388;SDS011;4734;52.778;6.798;2022-08-30T17:16:27;1.63;;;1.10;;
9388;SDS011;4734;52.778;6.798;2022-08-30T17:19:13;2.88;;;0.90;;
9388;SDS011;4734;52.778;6.798;2022-08-30T17:22:00;1.88;;;1.05;;
9388;SDS011;4734;52.778;6.798;2022-08-30T17:24:46;1.45;;;0.90;;
9388;SDS011;4734;52.778;6.798;2022-08-30T17:27:31;1.65;;;1.00;;
9388;SDS011;4734;52.778;6.798;2022-08-30T17:30:18;2.25;;;1.00;;
9388;SDS011;4734;52.778;6.798;2022-08-30T17:33:04;2.65;;;1.00;;
9388;SDS011;4734;52.778;6.798;2022-08-30T17:35:51;2.20;;;1.10;;
9388;SDS011;4734;52.778;6.798;2022-08-30T17:38:39;1.27;;;1.00;;
9388;SDS011;4734;52.778;6.798;2022-08-30T17:41:25;2.08;;;1.20;;
9388;SDS011;4734;52.778;6.798;2022-08-30T17:44:13;3.05;;;1.10;;